Time;durP1;ratioP1;P1;durP2;ratioP2;P2;SDS_P1;SDS_P2;PMS_P1;PMS_P2;Temp;Humidity;BMP_temperature;BMP_pressure;BME280_temperature;BME280_humidity;BME280_pressure;Samples;Min_cycle;Max_cycle;Signal;HPM_P1;HPM_P2
2023/03/09 00:00:54;;;;;;;38.35;34.25;;;4.70;99.90;;;;;;5045760;28;20428;-74
2023/03/09 00:03:22;;;;;;;41.05;34.28;;;4.70;99.90;;;;;;5057843;28;20431;-74
2023/03/09 00:05:53;;;;;;;40.30;33.45;;;4.70;99.90;;;;;;5066913;28;20946;-76
2023/03/09 00:08:21;;;;;;;40.88;35.85;;;4.70;99.90;;;;;;5066773;28;20442;-76
2023/03/09 00:10:51;;;;;;;40.10;34.45;;;4.70;99.90;;;;;;5041778;28;20425;-74
2023/03/09 00:13:18;;;;;;;41.83;36.05;;;4.80;99.90;;;;;;5056510;28;20442;-75
2023/03/09 00:15:49;;;;;;;36.97;33.05;;;4.80;99.90;;;;;;5065652;28;20435;-74
2023/03/09 00:18:17;;;;;;;39.45;33.92;;;4.80;99.90;;;;;;5029161;28;20419;-74
2023/03/09 00:20:44;;;;;;;39.55;33.85;;;4.80;99.90;;;;;;5065451;23;20438;-68
2023/03/09 00:23:11;;;;;;;40.20;35.90;;;4.90;99.90;;;;;;5087207;28;20764;-67
2023/03/09 00:25:39;;;;;;;43.85;37.85;;;4.90;99.90;;;;;;5106574;28;20420;-69
2023/03/09 00:28:06;;;;;;;42.72;36.03;;;4.90;99.90;;;;;;5101343;28;20425;-68
2023/03/09 00:30:33;;;;;;;43.83;35.50;;;5.00;99.90;;;;;;5095025;28;20704;-68
2023/03/09 00:33:00;;;;;;;44.65;36.03;;;4.90;99.90;;;;;;5064426;28;20782;-67
2023/03/09 00:35:27;;;;;;;54.13;36.65;;;4.90;99.90;;;;;;5076753;28;20410;-69
2023/03/09 00:37:53;;;;;;;56.83;38.22;;;4.90;99.90;;;;;;5089736;28;20915;-69
2023/03/09 00:40:20;;;;;;;42.75;36.78;;;4.90;99.90;;;;;;5088581;28;20413;-68
2023/03/09 00:42:48;;;;;;;38.13;34.13;;;5.00;99.90;;;;;;5077825;28;20813;-67
2023/03/09 00:45:15;;;;;;;43.70;34.67;;;5.00;99.90;;;;;;5079015;28;20789;-67
2023/03/09 00:47:42;;;;;;;40.13;34.30;;;5.00;99.90;;;;;;5070455;28;20446;-68
2023/03/09 00:50:10;;;;;;;46.50;37.40;;;5.00;99.90;;;;;;5069410;28;20426;-68
2023/03/09 00:52:37;;;;;;;47.63;37.33;;;5.00;99.90;;;;;;5074068;28;20897;-68
2023/03/09 00:55:04;;;;;;;45.97;38.55;;;5.00;99.90;;;;;;5080811;28;20417;-68
2023/03/09 00:57:31;;;;;;;54.95;39.00;;;5.00;99.90;;;;;;5081105;28;20435;-69
2023/03/09 00:59:59;;;;;;;57.65;37.92;;;5.00;99.90;;;;;;5078383;28;20751;-66
2023/03/09 01:02:27;;;;;;;52.92;38.17;;;5.00;99.90;;;;;;5085183;28;20874;-68
2023/03/09 01:04:53;;;;;;;66.60;40.08;;;5.00;99.90;;;;;;5082757;28;20432;-67
2023/03/09 01:07:22;;;;;;;62.42;39.40;;;5.00;99.90;;;;;;5090769;28;20437;-68
2023/03/09 01:09:49;;;;;;;59.90;38.50;;;5.00;99.90;;;;;;5083330;28;20456;-68
2023/03/09 01:12:15;;;;;;;50.00;38.45;;;5.10;99.90;;;;;;5071419;28;20695;-69
2023/03/09 01:14:42;;;;;;;50.88;37.38;;;5.10;99.90;;;;;;5082277;28;20409;-69
2023/03/09 01:17:10;;;;;;;48.60;36.75;;;5.10;99.90;;;;;;5090266;28;20425;-68
2023/03/09 01:19:38;;;;;;;42.20;35.03;;;5.10;99.90;;;;;;5089911;28;20406;-68
2023/03/09 01:22:05;;;;;;;40.90;34.47;;;5.20;99.90;;;;;;5083861;28;20536;-68
2023/03/09 01:24:31;;;;;;;48.75;35.83;;;5.20;99.90;;;;;;5081281;28;20410;-68
2023/03/09 01:26:58;;;;;;;45.65;36.30;;;5.20;99.90;;;;;;5086204;28;20427;-68
2023/03/09 01:29:25;;;;;;;40.70;35.00;;;5.20;99.90;;;;;;5083545;28;20919;-68
2023/03/09 01:31:52;;;;;;;44.10;35.22;;;5.20;99.90;;;;;;5071573;28;20534;-68
2023/03/09 01:34:20;;;;;;;39.60;33.92;;;5.20;99.90;;;;;;5080476;28;20428;-68
2023/03/09 01:36:47;;;;;;;45.90;37.30;;;5.30;99.90;;;;;;5049606;28;20444;-69
2023/03/09 01:39:13;;;;;;;43.05;35.35;;;5.30;99.90;;;;;;5048441;28;20409;-68
2023/03/09 01:41:40;;;;;;;54.42;37.72;;;5.30;99.90;;;;;;5051195;28;20439;-68
2023/03/09 01:44:11;;;;;;;42.33;34.30;;;5.20;99.90;;;;;;5078056;28;20706;-69
2023/03/09 01:46:45;;;;;;;41.67;35.90;;;5.20;99.90;;;;;;5089796;28;20410;-66
2023/03/09 01:49:28;;;;;;;61.60;37.58;;;5.10;99.90;;;;;;5089630;28;20416;-68
2023/03/09 01:52:01;;;;;;;58.58;39.10;;;5.10;99.90;;;;;;5084175;28;20424;-68
2023/03/09 01:54:32;;;;;;;64.20;37.85;;;5.10;99.90;;;;;;5080625;28;20895;-68
2023/03/09 01:57:06;;;;;;;60.80;39.00;;;5.20;99.90;;;;;;5081537;28;20414;-68
2023/03/09 01:59:34;;;;;;;57.50;37.08;;;5.20;99.90;;;;;;5075200;28;20906;-68
2023/03/09 02:02:02;;;;;;;47.42;38.08;;;5.20;99.90;;;;;;5080403;28;20443;-68
2023/03/09 02:04:35;;;;;;;50.80;37.40;;;5.30;99.90;;;;;;5080333;28;20425;-68
2023/03/09 02:07:03;;;;;;;50.17;37.83;;;5.30;99.90;;;;;;5083435;28;20494;-67
2023/03/09 02:09:38;;;;;;;42.03;36.15;;;5.20;99.90;;;;;;5064882;28;20417;-68
2023/03/09 02:12:06;;;;;;;46.22;36.17;;;5.20;99.90;;;;;;5056582;28;20418;-69
2023/03/09 02:14:33;;;;;;;56.03;38.60;;;5.30;99.90;;;;;;5079922;28;20911;-68
2023/03/09 02:17:00;;;;;;;43.70;36.83;;;5.20;99.90;;;;;;5087762;28;20470;-68
2023/03/09 02:19:38;;;;;;;46.15;35.80;;;5.20;99.90;;;;;;5086589;28;20784;-67
2023/03/09 02:22:05;;;;;;;38.10;32.50;;;5.20;99.90;;;;;;5081152;28;20887;-69
2023/03/09 02:24:40;;;;;;;41.70;35.90;;;5.20;99.90;;;;;;5078537;28;20425;-68
2023/03/09 02:27:19;;;;;;;42.72;35.72;;;5.20;99.90;;;;;;5084671;28;20441;-67
2023/03/09 02:29:46;;;;;;;41.67;34.22;;;5.20;99.90;;;;;;5079477;28;20935;-66
2023/03/09 02:32:14;;;;;;;39.85;32.17;;;5.20;99.90;;;;;;5072536;28;20433;-69
2023/03/09 02:34:40;;;;;;;35.03;29.40;;;5.10;99.90;;;;;;5079462;28;20779;-67
2023/03/09 02:37:23;;;;;;;36.05;30.05;;;5.10;99.90;;;;;;5085907;28;20414;-66
2023/03/09 02:39:51;;;;;;;36.08;29.13;;;5.00;99.90;;;;;;5074226;28;20407;-68
2023/03/09 02:42:20;;;;;;;34.40;28.60;;;4.90;99.90;;;;;;5082516;28;20426;-67
2023/03/09 02:44:47;;;;;;;31.50;27.40;;;4.90;99.90;;;;;;5078377;28;20421;-68
2023/03/09 02:47:17;;;;;;;32.95;27.52;;;4.80;99.90;;;;;;5086530;28;20791;-69
2023/03/09 02:49:44;;;;;;;30.92;27.42;;;4.80;99.90;;;;;;5081814;28;20931;-67
2023/03/09 02:52:11;;;;;;;30.23;26.02;;;4.70;99.90;;;;;;5078292;28;20417;-67
2023/03/09 02:54:38;;;;;;;34.28;27.52;;;4.60;99.90;;;;;;5087675;28;20413;-68
2023/03/09 02:57:05;;;;;;;34.90;27.58;;;4.60;99.90;;;;;;5081016;28;20511;-67
2023/03/09 02:59:33;;;;;;;36.10;28.05;;;4.60;99.90;;;;;;5078626;28;20409;-68
2023/03/09 03:02:01;;;;;;;42.85;30.08;;;4.50;99.90;;;;;;5066452;28;20418;-67
2023/03/09 03:04:27;;;;;;;38.90;30.23;;;4.40;99.90;;;;;;5065301;28;20398;-69
2023/03/09 03:06:54;;;;;;;43.75;31.13;;;4.40;99.90;;;;;;5066807;28;20419;-68
2023/03/09 03:09:21;;;;;;;43.43;31.93;;;4.30;99.90;;;;;;5080106;28;20413;-68
2023/03/09 03:11:47;;;;;;;47.97;31.73;;;4.30;99.90;;;;;;5088257;28;20417;-67
2023/03/09 03:14:14;;;;;;;48.63;32.08;;;4.20;99.90;;;;;;5074860;28;20431;-68
2023/03/09 03:16:42;;;;;;;48.80;33.30;;;4.10;99.90;;;;;;5082532;28;20414;-68
2023/03/09 03:19:09;;;;;;;47.85;33.08;;;4.10;99.90;;;;;;5062439;28;20435;-68
2023/03/09 03:21:36;;;;;;;54.33;33.25;;;4.10;99.90;;;;;;5066081;28;20671;-68
2023/03/09 03:24:02;;;;;;;52.40;35.00;;;4.10;99.90;;;;;;5067170;28;20427;-69
2023/03/09 03:26:29;;;;;;;47.53;33.40;;;4.10;99.90;;;;;;5065981;28;20427;-67
2023/03/09 03:28:56;;;;;;;57.35;36.33;;;4.10;99.90;;;;;;5075212;28;20436;-68
2023/03/09 03:31:23;;;;;;;54.75;35.60;;;4.10;99.90;;;;;;5081123;28;20422;-68
2023/03/09 03:33:51;;;;;;;62.50;36.47;;;4.00;99.90;;;;;;5086930;28;20410;-68
2023/03/09 03:36:18;;;;;;;60.73;36.83;;;3.90;99.90;;;;;;5087026;28;20510;-68
2023/03/09 03:38:44;;;;;;;65.03;36.90;;;3.90;99.90;;;;;;5077823;28;20429;-68
2023/03/09 03:41:11;;;;;;;67.15;36.67;;;3.90;99.90;;;;;;5068194;28;20423;-68
2023/03/09 03:43:38;;;;;;;68.90;35.78;;;3.90;99.90;;;;;;5072259;28;20430;-68
2023/03/09 03:46:05;;;;;;;68.72;36.13;;;3.80;99.90;;;;;;5079279;28;20428;-67
2023/03/09 03:48:31;;;;;;;69.60;37.15;;;3.80;99.90;;;;;;5076695;28;20429;-68
2023/03/09 03:50:59;;;;;;;68.78;35.10;;;3.80;99.90;;;;;;5079090;28;20410;-68
2023/03/09 03:53:26;;;;;;;62.95;33.90;;;3.80;99.90;;;;;;5077181;28;20425;-68
2023/03/09 03:55:53;;;;;;;67.37;35.00;;;3.80;99.90;;;;;;5067780;28;20416;-67
2023/03/09 03:58:20;;;;;;;69.57;35.40;;;3.70;99.90;;;;;;5070702;28;20430;-68
2023/03/09 04:00:46;;;;;;;74.60;35.97;;;3.70;99.90;;;;;;5085301;28;20410;-68
2023/03/09 04:03:13;;;;;;;75.07;36.72;;;3.70;99.90;;;;;;5086185;28;20907;-67
2023/03/09 04:05:40;;;;;;;72.20;35.88;;;3.60;99.90;;;;;;5086548;28;20421;-68
2023/03/09 04:08:08;;;;;;;80.03;37.65;;;3.60;99.90;;;;;;5077761;28;20487;-68
2023/03/09 04:10:38;;;;;;;78.45;38.42;;;3.60;99.90;;;;;;5077923;28;20414;-68
2023/03/09 04:13:05;;;;;;;77.43;36.75;;;3.60;99.90;;;;;;5079216;28;20428;-66
2023/03/09 04:15:32;;;;;;;71.40;37.10;;;3.50;99.90;;;;;;5079154;28;20895;-66
2023/03/09 04:17:59;;;;;;;79.63;39.17;;;3.60;99.90;;;;;;5078030;28;20441;-67
2023/03/09 04:20:26;;;;;;;75.85;36.97;;;3.60;99.90;;;;;;5067513;28;20439;-68
2023/03/09 04:22:53;;;;;;;72.57;35.65;;;3.60;99.90;;;;;;5075609;28;20423;-66
2023/03/09 04:25:21;;;;;;;81.45;39.20;;;3.60;99.90;;;;;;5080180;28;20436;-67
2023/03/09 04:27:48;;;;;;;79.10;39.45;;;3.50;99.90;;;;;;5082760;28;20427;-68
2023/03/09 04:30:20;;;;;;;86.15;40.30;;;3.50;99.90;;;;;;5078481;28;20421;-67
2023/03/09 04:32:47;;;;;;;86.43;39.83;;;3.40;99.90;;;;;;5084219;28;20760;-68
2023/03/09 04:35:14;;;;;;;91.70;42.28;;;3.50;99.90;;;;;;5085527;28;20414;-66
2023/03/09 04:37:40;;;;;;;101.72;42.22;;;3.50;99.90;;;;;;5080390;28;20817;-67
2023/03/09 04:40:09;;;;;;;87.00;39.35;;;3.50;99.90;;;;;;5074825;28;20646;-69
2023/03/09 04:42:37;;;;;;;78.47;38.13;;;3.50;99.90;;;;;;5077531;28;20981;-67
2023/03/09 04:45:04;;;;;;;77.83;38.70;;;3.60;99.90;;;;;;5075298;28;20754;-68
2023/03/09 04:47:31;;;;;;;80.00;37.20;;;3.50;99.90;;;;;;5081581;28;20409;-68
2023/03/09 04:49:58;;;;;;;86.05;38.25;;;3.50;99.90;;;;;;5077677;28;20416;-66
2023/03/09 04:52:25;;;;;;;84.57;37.47;;;3.50;99.90;;;;;;5081703;28;20436;-65
2023/03/09 04:54:54;;;;;;;89.38;38.33;;;3.60;99.90;;;;;;5076137;28;20419;-67
2023/03/09 04:57:21;;;;;;;84.83;38.50;;;3.60;99.90;;;;;;5086755;28;20894;-68
2023/03/09 04:59:49;;;;;;;74.75;35.67;;;3.70;99.90;;;;;;5077131;28;20423;-67
2023/03/09 05:02:16;;;;;;;73.72;34.80;;;3.70;99.90;;;;;;5082695;28;20418;-67
2023/03/09 05:04:42;;;;;;;70.82;34.80;;;3.70;99.90;;;;;;5092419;28;20434;-70
2023/03/09 05:07:09;;;;;;;73.03;34.10;;;3.70;99.90;;;;;;5072523;28;20438;-69
2023/03/09 05:09:36;;;;;;;60.90;31.20;;;3.80;99.90;;;;;;5058097;28;20460;-68
2023/03/09 05:12:03;;;;;;;63.95;31.92;;;3.80;99.90;;;;;;5066170;28;20444;-67
2023/03/09 05:14:30;;;;;;;70.40;33.72;;;3.80;99.90;;;;;;5053014;28;20949;-67
2023/03/09 05:16:58;;;;;;;83.40;35.42;;;3.70;99.90;;;;;;5055910;28;20848;-67
2023/03/09 05:19:25;;;;;;;83.68;35.03;;;3.70;99.90;;;;;;5070119;28;20420;-68
2023/03/09 05:21:52;;;;;;;92.38;35.72;;;3.70;99.90;;;;;;5077446;28;20805;-67
2023/03/09 05:24:18;;;;;;;75.00;34.43;;;3.70;99.90;;;;;;5071093;28;20433;-67
2023/03/09 05:26:45;;;;;;;93.38;35.92;;;3.80;99.90;;;;;;5084697;28;20422;-68
2023/03/09 05:29:12;;;;;;;82.85;34.63;;;3.80;99.90;;;;;;5072283;28;20434;-67
2023/03/09 05:31:39;;;;;;;73.90;31.88;;;3.80;99.90;;;;;;5081490;28;20414;-68
2023/03/09 05:34:07;;;;;;;74.18;32.55;;;3.80;99.90;;;;;;5073264;28;20816;-68
2023/03/09 05:36:33;;;;;;;81.75;34.30;;;3.80;99.90;;;;;;5067958;28;20422;-68
2023/03/09 05:39:00;;;;;;;73.90;32.40;;;3.80;99.90;;;;;;5057090;28;20431;-68
2023/03/09 05:41:27;;;;;;;80.65;33.95;;;3.90;99.90;;;;;;5069590;28;20456;-68
2023/03/09 05:43:53;;;;;;;75.78;33.00;;;3.90;99.90;;;;;;5064756;28;20429;-70
2023/03/09 05:46:23;;;;;;;67.88;31.38;;;3.90;99.90;;;;;;5068584;28;20430;-69
2023/03/09 05:48:49;;;;;;;79.03;36.42;;;3.90;99.90;;;;;;5067594;28;20508;-69
2023/03/09 05:51:18;;;;;;;64.10;31.08;;;3.90;99.90;;;;;;5078555;28;20446;-68
2023/03/09 05:53:45;;;;;;;77.22;33.20;;;3.90;99.90;;;;;;5073680;28;20844;-68
2023/03/09 05:56:13;;;;;;;58.50;28.40;;;3.90;99.90;;;;;;5046827;28;20466;-68
2023/03/09 05:58:40;;;;;;;70.32;30.52;;;3.80;99.90;;;;;;5073446;28;20783;-68
2023/03/09 06:01:17;;;;;;;55.17;28.08;;;3.80;99.90;;;;;;5072189;28;20416;-69
2023/03/09 06:03:44;;;;;;;61.47;28.67;;;3.80;99.90;;;;;;5059920;28;20427;-69
2023/03/09 06:06:11;;;;;;;50.00;27.27;;;3.80;99.90;;;;;;5063242;28;20431;-68
2023/03/09 06:08:39;;;;;;;55.50;27.07;;;3.80;99.90;;;;;;5062698;28;20444;-68
2023/03/09 06:11:06;;;;;;;73.10;30.25;;;3.80;99.90;;;;;;5062429;28;20934;-67
2023/03/09 06:13:33;;;;;;;42.57;23.50;;;3.80;99.90;;;;;;5068504;28;20814;-68
2023/03/09 06:16:02;;;;;;;56.40;27.40;;;3.80;99.90;;;;;;5074485;28;20415;-68
2023/03/09 06:18:28;;;;;;;38.60;24.00;;;3.80;99.90;;;;;;5063244;28;20803;-66
2023/03/09 06:20:59;;;;;;;53.53;25.90;;;3.80;99.90;;;;;;5073282;22;20757;-70
2023/03/09 06:23:26;;;;;;;50.95;27.20;;;3.80;99.90;;;;;;5077225;28;20768;-71
2023/03/09 06:25:54;;;;;;;64.30;28.73;;;3.80;99.90;;;;;;5093637;28;20774;-70
2023/03/09 06:28:21;;;;;;;65.13;30.55;;;3.90;99.90;;;;;;5078962;28;20451;-70
2023/03/09 06:30:48;;;;;;;69.50;31.40;;;3.90;99.90;;;;;;5075443;28;20589;-70
2023/03/09 06:33:14;;;;;;;75.25;33.10;;;4.00;99.90;;;;;;5065034;28;20626;-70
2023/03/09 06:35:41;;;;;;;74.70;31.30;;;4.00;99.90;;;;;;5063633;28;20511;-70
2023/03/09 06:38:08;;;;;;;65.45;30.55;;;4.00;99.90;;;;;;5061260;28;20447;-69
2023/03/09 06:40:35;;;;;;;50.05;27.38;;;4.00;99.90;;;;;;5063851;28;20534;-70
2023/03/09 06:43:03;;;;;;;43.53;24.85;;;4.00;99.90;;;;;;5072383;28;20447;-70
2023/03/09 06:45:30;;;;;;;39.80;23.42;;;4.10;99.90;;;;;;5056626;28;20428;-70
2023/03/09 06:47:58;;;;;;;41.35;23.98;;;4.00;99.90;;;;;;5073995;28;20425;-70
2023/03/09 06:50:26;;;;;;;38.72;23.25;;;4.00;99.90;;;;;;5073855;28;20981;-70
2023/03/09 06:52:53;;;;;;;45.63;24.90;;;4.00;99.90;;;;;;5078567;28;20429;-70
2023/03/09 06:55:20;;;;;;;47.95;25.08;;;4.00;99.90;;;;;;5062613;28;20424;-70
2023/03/09 06:57:46;;;;;;;39.88;24.73;;;4.10;99.90;;;;;;5061361;28;20431;-68
2023/03/09 07:00:16;;;;;;;47.40;26.17;;;4.00;99.90;;;;;;5060839;28;20427;-70
2023/03/09 07:02:43;;;;;;;42.50;23.88;;;4.00;99.90;;;;;;5067893;28;20491;-70
2023/03/09 07:05:11;;;;;;;39.20;23.15;;;4.00;99.90;;;;;;5071729;28;20508;-71
2023/03/09 07:07:37;;;;;;;37.25;23.25;;;4.00;99.90;;;;;;5073017;28;20423;-70
2023/03/09 07:10:05;;;;;;;41.17;24.15;;;4.00;99.90;;;;;;5079056;28;20423;-70
2023/03/09 07:12:32;;;;;;;41.60;24.25;;;4.10;99.90;;;;;;5080645;28;20519;-70
2023/03/09 07:14:59;;;;;;;39.90;23.93;;;4.20;99.90;;;;;;5072070;28;20549;-69
2023/03/09 07:17:27;;;;;;;37.78;22.77;;;4.30;99.90;;;;;;5058617;28;20794;-70
2023/03/09 07:19:54;;;;;;;42.17;24.20;;;4.30;99.90;;;;;;5075006;28;20515;-69
2023/03/09 07:22:20;;;;;;;45.15;25.15;;;4.30;99.90;;;;;;5067390;28;20720;-73
2023/03/09 07:24:47;;;;;;;38.43;23.20;;;4.20;99.90;;;;;;5069562;28;20435;-70
2023/03/09 07:27:14;;;;;;;37.25;21.98;;;4.20;99.90;;;;;;5066610;28;20438;-70
2023/03/09 07:29:41;;;;;;;26.60;18.65;;;4.30;99.90;;;;;;5065081;28;20754;-70
2023/03/09 07:32:08;;;;;;;28.77;19.25;;;4.30;99.90;;;;;;5061568;28;20429;-70
2023/03/09 07:34:37;;;;;;;33.80;21.63;;;4.30;99.90;;;;;;5064475;28;20472;-70
2023/03/09 07:37:04;;;;;;;30.17;20.23;;;4.30;99.90;;;;;;5067758;28;20410;-70
2023/03/09 07:39:31;;;;;;;29.90;20.98;;;4.30;99.90;;;;;;5069282;28;20909;-71
2023/03/09 07:41:58;;;;;;;31.77;21.60;;;4.30;99.90;;;;;;5067183;28;20900;-71
2023/03/09 07:44:25;;;;;;;31.77;21.67;;;4.40;99.90;;;;;;5060837;28;20431;-70
2023/03/09 07:46:52;;;;;;;29.13;20.45;;;4.50;99.90;;;;;;5065593;28;20446;-70
2023/03/09 07:49:19;;;;;;;31.65;21.27;;;4.40;99.90;;;;;;5078114;28;20461;-71
2023/03/09 07:51:47;;;;;;;24.48;17.85;;;4.50;99.90;;;;;;5067910;28;20431;-69
2023/03/09 07:54:14;;;;;;;22.13;18.48;;;4.40;99.90;;;;;;5067830;28;20459;-71
2023/03/09 07:56:42;;;;;;;26.42;18.85;;;4.40;99.90;;;;;;5077033;28;20428;-71
2023/03/09 07:59:14;;;;;;;24.77;19.00;;;4.40;99.90;;;;;;5068210;28;20454;-72
2023/03/09 08:01:41;;;;;;;24.83;19.07;;;4.40;99.90;;;;;;5055270;28;20467;-70
2023/03/09 08:04:08;;;;;;;25.45;19.70;;;4.40;99.90;;;;;;5063081;28;20436;-70
2023/03/09 08:06:38;;;;;;;19.50;16.90;;;4.50;99.90;;;;;;5062174;28;21216;-72
2023/03/09 08:09:07;;;;;;;22.15;17.55;;;4.50;99.90;;;;;;5060498;28;20428;-71
2023/03/09 08:11:34;;;;;;;20.45;16.67;;;4.50;99.90;;;;;;5055747;28;20452;-72
2023/03/09 08:14:01;;;;;;;21.27;17.65;;;4.50;99.90;;;;;;5055928;28;20524;-71
2023/03/09 08:16:28;;;;;;;23.13;18.10;;;4.50;99.90;;;;;;5057551;28;20423;-72
2023/03/09 08:18:54;;;;;;;22.20;18.20;;;4.50;99.90;;;;;;5059861;28;20434;-71
2023/03/09 08:21:23;;;;;;;26.52;18.67;;;4.50;99.90;;;;;;5057249;28;20424;-71
2023/03/09 08:23:50;;;;;;;24.50;20.00;;;4.60;99.90;;;;;;5064994;28;20987;-71
2023/03/09 08:26:19;;;;;;;22.40;18.77;;;4.60;99.90;;;;;;5062553;28;20522;-76
2023/03/09 08:28:46;;;;;;;23.35;18.00;;;4.60;99.90;;;;;;5071951;28;20682;-71
2023/03/09 08:31:16;;;;;;;26.02;19.20;;;4.70;99.90;;;;;;5075814;28;20520;-72
2023/03/09 08:33:43;;;;;;;23.67;18.83;;;4.70;99.90;;;;;;5078985;28;20510;-71
2023/03/09 08:36:12;;;;;;;20.20;18.10;;;4.90;99.90;;;;;;5078893;28;20435;-71
2023/03/09 08:38:39;;;;;;;20.98;18.85;;;5.00;99.90;;;;;;5069748;28;20441;-71
2023/03/09 08:41:06;;;;;;;17.63;15.73;;;5.10;99.90;;;;;;5078773;28;20411;-71
2023/03/09 08:43:34;;;;;;;17.20;15.40;;;5.20;99.90;;;;;;5065510;28;20429;-72
2023/03/09 08:46:02;;;;;;;15.65;13.98;;;5.10;99.90;;;;;;5070115;28;20431;-69
2023/03/09 08:48:28;;;;;;;15.25;13.30;;;5.10;99.90;;;;;;5064277;28;20498;-70
2023/03/09 08:50:56;;;;;;;14.65;13.10;;;5.10;99.90;;;;;;5067750;28;20431;-70
2023/03/09 08:53:23;;;;;;;15.57;13.77;;;5.10;99.90;;;;;;5068739;28;20438;-69
2023/03/09 08:55:51;;;;;;;16.40;14.70;;;5.10;99.90;;;;;;5066585;28;20830;-69
2023/03/09 08:58:17;;;;;;;16.63;14.88;;;5.00;99.90;;;;;;5069509;28;20455;-70
2023/03/09 09:00:47;;;;;;;15.30;13.80;;;5.00;99.90;;;;;;5059394;28;20450;-70
2023/03/09 09:03:14;;;;;;;13.70;12.30;;;5.00;99.90;;;;;;5065136;28;20908;-71
2023/03/09 09:05:41;;;;;;;11.05;9.95;;;5.10;99.90;;;;;;5076930;28;20430;-71
2023/03/09 09:08:08;;;;;;;12.90;11.70;;;5.00;99.90;;;;;;5073406;28;20506;-71
2023/03/09 09:10:39;;;;;;;11.88;10.75;;;4.90;99.90;;;;;;5064859;28;20437;-71
2023/03/09 09:13:06;;;;;;;12.88;11.63;;;4.90;99.90;;;;;;5068382;28;20502;-69
2023/03/09 09:15:33;;;;;;;13.23;12.02;;;4.90;99.90;;;;;;5058024;28;20936;-70
2023/03/09 09:18:01;;;;;;;13.20;11.80;;;5.10;99.90;;;;;;5068161;28;20436;-70
2023/03/09 09:20:28;;;;;;;12.38;11.15;;;5.10;99.90;;;;;;5073561;28;20483;-70
2023/03/09 09:22:55;;;;;;;11.70;10.60;;;5.10;99.90;;;;;;5066762;28;20769;-71
2023/03/09 09:25:22;;;;;;;13.10;11.70;;;5.10;99.90;;;;;;5065148;28;20431;-69
2023/03/09 09:27:50;;;;;;;12.60;11.40;;;5.00;99.90;;;;;;5072944;28;20422;-69
2023/03/09 09:30:18;;;;;;;13.73;12.43;;;5.10;99.90;;;;;;5071853;28;20431;-70
2023/03/09 09:32:44;;;;;;;13.15;11.85;;;5.10;99.90;;;;;;5067990;28;20435;-68
2023/03/09 09:35:14;;;;;;;14.05;12.75;;;5.10;99.90;;;;;;5082931;28;20415;-68
2023/03/09 09:37:41;;;;;;;14.48;13.07;;;5.10;99.90;;;;;;5046268;28;20444;-67
2023/03/09 09:40:12;;;;;;;14.93;13.43;;;5.20;99.90;;;;;;5063489;28;20900;-67
2023/03/09 09:42:43;;;;;;;14.10;12.70;;;5.20;99.90;;;;;;5066702;28;20411;-67
2023/03/09 09:45:25;;;;;;;14.77;13.25;;;5.30;99.90;;;;;;5068307;28;20423;-68
2023/03/09 09:47:52;;;;;;;14.55;13.15;;;5.50;99.90;;;;;;5076166;28;20415;-66
2023/03/09 09:50:26;;;;;;;14.40;13.00;;;5.60;99.90;;;;;;5085881;28;20408;-67
2023/03/09 09:52:59;;;;;;;14.13;12.83;;;5.70;99.90;;;;;;5082933;28;20442;-66
2023/03/09 09:55:29;;;;;;;14.48;13.18;;;5.70;99.90;;;;;;5083152;28;20426;-67
2023/03/09 09:58:01;;;;;;;13.73;12.52;;;5.60;99.90;;;;;;5075441;28;20773;-67
2023/03/09 10:00:34;;;;;;;12.88;11.77;;;5.60;99.90;;;;;;5079268;28;20454;-68
2023/03/09 10:03:10;;;;;;;13.70;12.50;;;5.60;99.90;;;;;;5072523;28;21444;-67
2023/03/09 10:05:45;;;;;;;14.88;13.48;;;5.50;99.90;;;;;;5080367;28;20471;-66
2023/03/09 10:08:22;;;;;;;14.10;12.90;;;5.60;99.90;;;;;;5068763;28;20772;-67
2023/03/09 10:10:50;;;;;;;15.20;13.80;;;5.70;99.90;;;;;;5076386;28;20749;-67
2023/03/09 10:13:24;;;;;;;11.70;10.70;;;5.80;99.90;;;;;;5069983;28;20435;-68
2023/03/09 10:15:53;;;;;;;11.70;10.70;;;5.80;99.90;;;;;;5072978;28;20449;-67
2023/03/09 10:18:32;;;;;;;11.18;10.18;;;5.80;99.90;;;;;;5065295;28;20544;-67
2023/03/09 10:21:02;;;;;;;11.50;10.50;;;5.80;99.90;;;;;;5071896;28;20411;-67
2023/03/09 10:23:32;;;;;;;11.07;10.18;;;5.90;99.90;;;;;;5063967;28;20546;-71
2023/03/09 10:26:10;;;;;;;11.85;10.85;;;6.00;99.90;;;;;;5076921;28;20435;-67
2023/03/09 10:28:44;;;;;;;11.00;10.10;;;6.10;99.90;;;;;;5073358;28;20419;-68
2023/03/09 10:31:17;;;;;;;10.82;9.93;;;6.20;99.90;;;;;;5069454;28;20930;-68
2023/03/09 10:33:46;;;;;;;10.15;9.30;;;6.40;99.90;;;;;;5064402;28;20434;-68
2023/03/09 10:36:21;;;;;;;10.60;9.60;;;6.50;99.90;;;;;;5075086;28;20430;-68
2023/03/09 10:38:47;;;;;;;10.60;9.70;;;6.80;99.90;;;;;;5070713;28;20446;-71
2023/03/09 10:41:19;;;;;;;9.20;8.40;;;6.90;99.90;;;;;;5074794;28;20918;-68
2023/03/09 10:43:47;;;;;;;10.10;9.20;;;7.10;99.90;;;;;;5063799;28;20422;-71
2023/03/09 10:46:16;;;;;;;8.57;7.88;;;7.40;99.90;;;;;;5068320;28;20428;-68
2023/03/09 10:48:43;;;;;;;8.57;7.88;;;7.70;99.90;;;;;;5062086;28;20412;-72
2023/03/09 10:51:26;;;;;;;7.90;7.30;;;7.80;99.90;;;;;;5087003;28;20471;-68
2023/03/09 10:53:54;;;;;;;7.57;6.97;;;7.80;99.90;;;;;;5072644;28;20435;-68
2023/03/09 10:56:23;;;;;;;8.27;7.68;;;7.60;99.90;;;;;;5068463;28;20412;-69
2023/03/09 10:59:12;;;;;;;8.60;7.90;;;7.50;99.90;;;;;;5069763;28;20424;-69
2023/03/09 11:01:41;;;;;;;10.30;9.40;;;7.50;99.90;;;;;;5065755;28;20460;-70
2023/03/09 11:04:36;;;;;;;8.38;7.70;;;7.50;99.90;;;;;;5057217;28;20711;-69
2023/03/09 11:07:06;;;;;;;8.77;8.10;;;7.50;99.90;;;;;;5049795;28;20516;-70
2023/03/09 11:09:35;;;;;;;8.60;7.90;;;7.40;99.90;;;;;;5066226;28;20477;-70
2023/03/09 11:12:10;;;;;;;8.30;7.60;;;7.40;99.90;;;;;;5055768;28;20670;-70
2023/03/09 11:14:44;;;;;;;9.15;8.45;;;7.40;99.90;;;;;;5060798;28;20938;-70
2023/03/09 11:17:33;;;;;;;9.10;8.30;;;7.40;99.90;;;;;;5058774;28;20650;-69
2023/03/09 11:20:21;;;;;;;8.30;7.70;;;7.60;99.90;;;;;;5059340;28;20416;-69
2023/03/09 11:22:54;;;;;;;8.40;7.80;;;7.80;99.90;;;;;;5063471;28;20414;-70
2023/03/09 11:25:29;;;;;;;8.05;7.45;;;8.00;99.90;;;;;;5060389;28;20434;-70
2023/03/09 11:28:05;;;;;;;8.57;7.88;;;7.90;99.90;;;;;;5066497;28;20648;-70
2023/03/09 11:30:31;;;;;;;8.90;8.20;;;7.90;99.90;;;;;;5066603;28;20881;-70
2023/03/09 11:32:58;;;;;;;9.20;8.50;;;8.00;99.90;;;;;;5067929;28;20415;-70
2023/03/09 11:35:25;;;;;;;8.30;7.70;;;8.00;99.90;;;;;;5079934;28;20426;-69
2023/03/09 11:37:59;;;;;;;8.38;7.75;;;8.20;99.90;;;;;;5066322;28;20420;-70
2023/03/09 11:40:30;;;;;;;8.65;8.05;;;8.20;99.90;;;;;;5064624;28;20435;-69
2023/03/09 11:43:00;;;;;;;8.20;7.57;;;8.10;99.90;;;;;;5068587;28;20498;-70
2023/03/09 11:45:30;;;;;;;8.30;7.70;;;8.10;99.90;;;;;;5061114;28;20429;-69
2023/03/09 11:48:01;;;;;;;8.57;7.88;;;8.00;99.90;;;;;;5067306;28;20517;-69
2023/03/09 11:50:31;;;;;;;9.00;8.30;;;8.00;99.90;;;;;;5078189;28;20430;-69
2023/03/09 11:53:01;;;;;;;9.40;8.60;;;8.20;99.90;;;;;;5079943;28;20421;-69
2023/03/09 11:55:35;;;;;;;8.80;7.90;;;8.40;99.90;;;;;;5073187;28;20435;-68
2023/03/09 11:58:06;;;;;;;8.73;8.13;;;8.70;99.90;;;;;;5070464;28;20416;-70
2023/03/09 12:00:35;;;;;;;8.90;8.20;;;8.80;99.90;;;;;;5062003;28;20419;-69
2023/03/09 12:03:09;;;;;;;9.73;8.93;;;9.00;99.90;;;;;;5066577;28;20412;-69
2023/03/09 12:05:39;;;;;;;9.38;8.68;;;9.10;99.90;;;;;;5064141;28;20900;-70
2023/03/09 12:08:14;;;;;;;10.13;9.32;;;9.20;99.90;;;;;;5052692;28;20529;-70
2023/03/09 12:10:47;;;;;;;8.68;8.00;;;9.50;99.90;;;;;;5066644;28;20415;-69
2023/03/09 12:13:19;;;;;;;9.70;9.00;;;9.50;99.90;;;;;;5053232;28;20881;-69
2023/03/09 12:15:52;;;;;;;9.88;9.07;;;9.60;99.90;;;;;;5062641;28;20424;-69
2023/03/09 12:18:21;;;;;;;10.00;9.20;;;9.50;99.90;;;;;;5068220;28;20421;-64
2023/03/09 12:20:54;;;;;;;9.85;9.10;;;9.60;99.90;;;;;;5079820;22;20455;-68
2023/03/09 12:23:47;;;;;;;10.60;9.80;;;9.70;99.90;;;;;;5066162;28;20444;-71
2023/03/09 12:26:28;;;;;;;10.45;9.65;;;9.80;99.90;;;;;;5068081;28;20425;-70
2023/03/09 12:28:59;;;;;;;10.20;9.50;;;9.80;99.90;;;;;;5078648;28;20419;-69
2023/03/09 12:31:30;;;;;;;10.43;9.52;;;9.70;99.90;;;;;;5071250;28;20461;-69
2023/03/09 12:34:07;;;;;;;11.43;10.52;;;9.60;99.90;;;;;;5058972;28;20439;-68
2023/03/09 12:36:35;;;;;;;11.57;10.68;;;9.40;99.90;;;;;;5061277;28;20486;-70
2023/03/09 12:39:43;;;;;;;12.35;11.35;;;9.30;99.90;;;;;;5072320;28;20431;-68
2023/03/09 12:42:36;;;;;;;11.98;10.88;;;9.10;99.90;;;;;;5059421;28;20429;-69
2023/03/09 12:45:23;;;;;;;12.80;11.70;;;8.90;99.90;;;;;;5072430;28;20902;-68
2023/03/09 12:47:52;;;;;;;13.50;12.40;;;8.60;99.90;;;;;;5069457;28;20443;-69
2023/03/09 12:50:25;;;;;;;14.17;13.07;;;8.40;99.90;;;;;;5071957;28;20440;-69